sensor_id;sensor_type;location;lat;lon;timestamp;pressure;altitude;pressure_sealevel;temperature;humidity
9538;BME280;4807;48.024;11.726;2022-08-21T00:02:23;95093.03;;;16.42;100.00
9538;BME280;4807;48.024;11.726;2022-08-21T00:05:38;95081.34;;;16.27;100.00
9538;BME280;4807;48.024;11.726;2022-08-21T00:08:47;95088.50;;;16.20;100.00
9538;BME280;4807;48.024;11.726;2022-08-21T00:11:55;95079.22;;;16.14;100.00
9538;BME280;4807;48.024;11.726;2022-08-21T00:15:09;95073.88;;;16.14;100.00
9538;BME280;4807;48.024;11.726;2022-08-21T00:18:18;95077.22;;;16.07;100.00
9538;BME280;4807;48.024;11.726;2022-08-21T00:21:27;95072.34;;;15.90;100.00
9538;BME280;4807;48.024;11.726;2022-08-21T00:24:36;95080.69;;;15.85;100.00
9538;BME280;4807;48.024;11.726;2022-08-21T00:27:44;95080.84;;;15.96;100.00
9538;BME280;4807;48.024;11.726;2022-08-21T00:30:55;95076.25;;;15.96;100.00
9538;BME280;4807;48.024;11.726;2022-08-21T00:34:04;95079.06;;;15.80;100.00
9538;BME280;4807;48.024;11.726;2022-08-21T00:37:13;95079.00;;;15.77;100.00
9538;BME280;4807;48.024;11.726;2022-08-21T00:40:27;95080.72;;;15.66;100.00
9538;BME280;4807;48.024;11.726;2022-08-21T00:43:38;95078.91;;;15.50;100.00
9538;BME280;4807;48.024;11.726;2022-08-21T00:46:49;95079.81;;;15.58;100.00
9538;BME280;4807;48.024;11.726;2022-08-21T00:49:58;95079.31;;;15.53;100.00
9538;BME280;4807;48.024;11.726;2022-08-21T00:53:10;95083.13;;;15.52;100.00
9538;BME280;4807;48.024;11.726;2022-08-21T00:56:20;95080.19;;;15.37;100.00
9538;BME280;4807;48.024;11.726;2022-08-21T00:59:35;95078.34;;;15.41;100.00
9538;BME280;4807;48.024;11.726;2022-08-21T01:02:48;95071.81;;;15.39;100.00
9538;BME280;4807;48.024;11.726;2022-08-21T01:05:57;95069.00;;;15.32;100.00
9538;BME280;4807;48.024;11.726;2022-08-21T01:09:09;95066.16;;;15.44;100.00
9538;BME280;4807;48.024;11.726;2022-08-21T01:12:18;95059.75;;;15.26;100.00
9538;BME280;4807;48.024;11.726;2022-08-21T01:15:31;95060.78;;;15.21;100.00
9538;BME280;4807;48.024;11.726;2022-08-21T01:18:42;95062.03;;;15.27;100.00
9538;BME280;4807;48.024;11.726;2022-08-21T01:21:53;95059.31;;;15.24;100.00
9538;BME280;4807;48.024;11.726;2022-08-21T01:25:04;95056.78;;;15.11;100.00
9538;BME280;4807;48.024;11.726;2022-08-21T01:28:14;95054.53;;;15.14;100.00
9538;BME280;4807;48.024;11.726;2022-08-21T01:31:25;95057.63;;;15.16;100.00
9538;BME280;4807;48.024;11.726;2022-08-21T01:34:42;95053.50;;;14.99;100.00
9538;BME280;4807;48.024;11.726;2022-08-21T01:37:52;95049.69;;;15.00;100.00
9538;BME280;4807;48.024;11.726;2022-08-21T01:41:00;95062.63;;;14.98;100.00
9538;BME280;4807;48.024;11.726;2022-08-21T01:44:10;95058.78;;;14.95;100.00
9538;BME280;4807;48.024;11.726;2022-08-21T01:47:19;95059.00;;;14.87;100.00
9538;BME280;4807;48.024;11.726;2022-08-21T01:50:30;95058.22;;;14.86;100.00
9538;BME280;4807;48.024;11.726;2022-08-21T01:53:40;95057.88;;;14.88;100.00
9538;BME280;4807;48.024;11.726;2022-08-21T01:56:55;95057.44;;;14.86;100.00
9538;BME280;4807;48.024;11.726;2022-08-21T02:00:08;95050.38;;;14.97;100.00
9538;BME280;4807;48.024;11.726;2022-08-21T02:03:21;95050.41;;;14.78;100.00
9538;BME280;4807;48.024;11.726;2022-08-21T02:06:43;95051.22;;;14.82;100.00
9538;BME280;4807;48.024;11.726;2022-08-21T02:09:53;95043.28;;;14.85;100.00
9538;BME280;4807;48.024;11.726;2022-08-21T02:13:02;95040.53;;;14.82;100.00
9538;BME280;4807;48.024;11.726;2022-08-21T02:16:19;95038.16;;;14.77;100.00
9538;BME280;4807;48.024;11.726;2022-08-21T02:19:27;95041.38;;;14.66;100.00
9538;BME280;4807;48.024;11.726;2022-08-21T02:22:45;95038.31;;;14.64;100.00
9538;BME280;4807;48.024;11.726;2022-08-21T02:25:56;95036.03;;;14.66;100.00
9538;BME280;4807;48.024;11.726;2022-08-21T02:29:05;95039.56;;;14.70;100.00
9538;BME280;4807;48.024;11.726;2022-08-21T02:32:14;95036.66;;;14.60;100.00
9538;BME280;4807;48.024;11.726;2022-08-21T02:35:22;95036.66;;;14.60;100.00
9538;BME280;4807;48.024;11.726;2022-08-21T02:38:34;95032.38;;;14.55;100.00
9538;BME280;4807;48.024;11.726;2022-08-21T02:41:46;95027.69;;;14.49;100.00
9538;BME280;4807;48.024;11.726;2022-08-21T02:44:54;95031.19;;;14.37;100.00
9538;BME280;4807;48.024;11.726;2022-08-21T02:48:06;95034.41;;;14.43;100.00
9538;BME280;4807;48.024;11.726;2022-08-21T02:51:18;95029.47;;;14.45;100.00
9538;BME280;4807;48.024;11.726;2022-08-21T02:54:36;95025.19;;;14.40;100.00
9538;BME280;4807;48.024;11.726;2022-08-21T02:57:45;95019.50;;;14.42;100.00
9538;BME280;4807;48.024;11.726;2022-08-21T03:00:54;95030.53;;;14.40;100.00
9538;BME280;4807;48.024;11.726;2022-08-21T03:04:10;95036.66;;;14.25;100.00
9538;BME280;4807;48.024;11.726;2022-08-21T03:07:19;95042.94;;;14.32;100.00
9538;BME280;4807;48.024;11.726;2022-08-21T03:10:27;95037.78;;;14.24;100.00
9538;BME280;4807;48.024;11.726;2022-08-21T03:13:39;95032.53;;;14.43;100.00
9538;BME280;4807;48.024;11.726;2022-08-21T03:16:47;95036.13;;;14.35;100.00
9538;BME280;4807;48.024;11.726;2022-08-21T03:19:56;95034.84;;;14.29;100.00
9538;BME280;4807;48.024;11.726;2022-08-21T03:23:06;95037.97;;;14.15;100.00
9538;BME280;4807;48.024;11.726;2022-08-21T03:26:20;95032.13;;;14.10;100.00
9538;BME280;4807;48.024;11.726;2022-08-21T03:29:30;95035.66;;;14.14;100.00
9538;BME280;4807;48.024;11.726;2022-08-21T03:32:38;95036.34;;;14.11;100.00
9538;BME280;4807;48.024;11.726;2022-08-21T03:35:59;95041.19;;;14.05;100.00
9538;BME280;4807;48.024;11.726;2022-08-21T03:39:08;95034.03;;;14.09;100.00
9538;BME280;4807;48.024;11.726;2022-08-21T03:42:16;95039.56;;;14.01;100.00
9538;BME280;4807;48.024;11.726;2022-08-21T03:45:26;95046.09;;;14.03;100.00
9538;BME280;4807;48.024;11.726;2022-08-21T03:48:37;95048.28;;;13.98;100.00
9538;BME280;4807;48.024;11.726;2022-08-21T03:51:48;95042.84;;;13.94;100.00
9538;BME280;4807;48.024;11.726;2022-08-21T03:55:06;95043.09;;;14.05;100.00
9538;BME280;4807;48.024;11.726;2022-08-21T03:58:16;95050.38;;;14.08;100.00
9538;BME280;4807;48.024;11.726;2022-08-21T04:01:26;95042.03;;;14.09;100.00
9538;BME280;4807;48.024;11.726;2022-08-21T04:04:35;95039.38;;;14.09;100.00
9538;BME280;4807;48.024;11.726;2022-08-21T04:07:44;95045.59;;;14.13;100.00
9538;BME280;4807;48.024;11.726;2022-08-21T04:10:55;95050.38;;;14.08;100.00
9538;BME280;4807;48.024;11.726;2022-08-21T04:14:05;95056.44;;;14.05;100.00
9538;BME280;4807;48.024;11.726;2022-08-21T04:17:15;95055.66;;;14.04;100.00
9538;BME280;4807;48.024;11.726;2022-08-21T04:20:23;95055.91;;;13.99;100.00
9538;BME280;4807;48.024;11.726;2022-08-21T04:23:31;95064.44;;;14.05;100.00
9538;BME280;4807;48.024;11.726;2022-08-21T04:26:41;95061.19;;;13.95;100.00
9538;BME280;4807;48.024;11.726;2022-08-21T04:29:49;95070.66;;;13.93;100.00
9538;BME280;4807;48.024;11.726;2022-08-21T04:32:59;95072.38;;;14.01;100.00
9538;BME280;4807;48.024;11.726;2022-08-21T04:36:08;95072.69;;;14.00;100.00
9538;BME280;4807;48.024;11.726;2022-08-21T04:39:17;95077.03;;;14.04;100.00
9538;BME280;4807;48.024;11.726;2022-08-21T04:42:26;95076.16;;;14.00;100.00
9538;BME280;4807;48.024;11.726;2022-08-21T04:45:39;95081.47;;;14.00;100.00
9538;BME280;4807;48.024;11.726;2022-08-21T04:48:49;95078.56;;;14.05;100.00
9538;BME280;4807;48.024;11.726;2022-08-21T04:51:57;95082.25;;;14.01;100.00
9538;BME280;4807;48.024;11.726;2022-08-21T04:55:06;95079.34;;;14.06;100.00
9538;BME280;4807;48.024;11.726;2022-08-21T04:58:18;95087.34;;;14.06;100.00
9538;BME280;4807;48.024;11.726;2022-08-21T05:01:30;95082.88;;;14.10;100.00
9538;BME280;4807;48.024;11.726;2022-08-21T05:04:47;95079.50;;;14.13;100.00
9538;BME280;4807;48.024;11.726;2022-08-21T05:08:00;95085.69;;;14.17;100.00
9538;BME280;4807;48.024;11.726;2022-08-21T05:11:10;95078.34;;;14.29;100.00
9538;BME280;4807;48.024;11.726;2022-08-21T05:14:19;95074.06;;;14.25;100.00
9538;BME280;4807;48.024;11.726;2022-08-21T05:17:28;95083.34;;;14.31;100.00
9538;BME280;4807;48.024;11.726;2022-08-21T05:20:38;95078.09;;;14.34;100.00
9538;BME280;4807;48.024;11.726;2022-08-21T05:23:47;95078.19;;;14.38;100.00
9538;BME280;4807;48.024;11.726;2022-08-21T05:26:55;95076.09;;;14.47;100.00
9538;BME280;4807;48.024;11.726;2022-08-21T05:30:05;95085.38;;;14.53;100.00
9538;BME280;4807;48.024;11.726;2022-08-21T05:33:14;95090.81;;;14.57;100.00
9538;BME280;4807;48.024;11.726;2022-08-21T05:36:24;95097.94;;;14.68;100.00
9538;BME280;4807;48.024;11.726;2022-08-21T05:39:33;95096.19;;;14.76;100.00
9538;BME280;4807;48.024;11.726;2022-08-21T05:43:02;95094.72;;;14.79;100.00
9538;BME280;4807;48.024;11.726;2022-08-21T05:46:10;95103.59;;;15.02;100.00
9538;BME280;4807;48.024;11.726;2022-08-21T05:49:18;95100.47;;;15.19;100.00
9538;BME280;4807;48.024;11.726;2022-08-21T05:52:28;95102.66;;;15.33;100.00
9538;BME280;4807;48.024;11.726;2022-08-21T05:55:37;95102.84;;;15.43;100.00
9538;BME280;4807;48.024;11.726;2022-08-21T05:58:51;95100.94;;;15.44;100.00
9538;BME280;4807;48.024;11.726;2022-08-21T06:02:01;95110.94;;;15.66;100.00
9538;BME280;4807;48.024;11.726;2022-08-21T06:05:13;95107.84;;;15.87;100.00
9538;BME280;4807;48.024;11.726;2022-08-21T06:08:33;95102.56;;;16.40;100.00
9538;BME280;4807;48.024;11.726;2022-08-21T06:11:42;95096.47;;;17.62;100.00
9538;BME280;4807;48.024;11.726;2022-08-21T06:14:50;95095.63;;;18.50;100.00
9538;BME280;4807;48.024;11.726;2022-08-21T06:17:58;95087.16;;;19.06;100.00
9538;BME280;4807;48.024;11.726;2022-08-21T06:21:07;95095.91;;;20.36;100.00
9538;BME280;4807;48.024;11.726;2022-08-21T06:24:17;95102.34;;;20.92;100.00
9538;BME280;4807;48.024;11.726;2022-08-21T06:27:25;95102.28;;;21.09;100.00
9538;BME280;4807;48.024;11.726;2022-08-21T06:30:35;95106.44;;;21.35;100.00
9538;BME280;4807;48.024;11.726;2022-08-21T06:33:44;95098.19;;;22.74;92.98
9538;BME280;4807;48.024;11.726;2022-08-21T06:36:54;95098.22;;;24.26;85.51
9538;BME280;4807;48.024;11.726;2022-08-21T06:40:06;95098.50;;;23.78;86.36
9538;BME280;4807;48.024;11.726;2022-08-21T06:43:18;95100.03;;;24.33;85.79
9538;BME280;4807;48.024;11.726;2022-08-21T06:46:45;95099.19;;;24.12;83.32
9538;BME280;4807;48.024;11.726;2022-08-21T06:49:54;95097.91;;;23.93;82.81
9538;BME280;4807;48.024;11.726;2022-08-21T06:53:07;95101.47;;;25.07;81.05
9538;BME280;4807;48.024;11.726;2022-08-21T06:56:18;95103.66;;;23.38;82.14
9538;BME280;4807;48.024;11.726;2022-08-21T06:59:30;95091.78;;;24.63;81.75
9538;BME280;4807;48.024;11.726;2022-08-21T07:02:38;95096.53;;;24.36;81.36
9538;BME280;4807;48.024;11.726;2022-08-21T07:05:57;95095.44;;;24.53;81.41
9538;BME280;4807;48.024;11.726;2022-08-21T07:09:06;95099.19;;;24.82;79.77
9538;BME280;4807;48.024;11.726;2022-08-21T07:12:16;95093.38;;;24.60;79.34
9538;BME280;4807;48.024;11.726;2022-08-21T07:15:24;95082.88;;;23.89;82.85
9538;BME280;4807;48.024;11.726;2022-08-21T07:18:33;95085.19;;;23.90;83.05
9538;BME280;4807;48.024;11.726;2022-08-21T07:21:42;95086.84;;;24.58;78.14
9538;BME280;4807;48.024;11.726;2022-08-21T07:24:50;95080.38;;;24.95;75.77
9538;BME280;4807;48.024;11.726;2022-08-21T07:28:03;95081.69;;;25.26;76.05
9538;BME280;4807;48.024;11.726;2022-08-21T07:31:15;95074.75;;;26.13;73.33
9538;BME280;4807;48.024;11.726;2022-08-21T07:34:23;95076.25;;;25.46;75.47
9538;BME280;4807;48.024;11.726;2022-08-21T07:37:31;95074.78;;;26.46;72.39
9538;BME280;4807;48.024;11.726;2022-08-21T07:40:40;95076.78;;;26.09;75.43
9538;BME280;4807;48.024;11.726;2022-08-21T07:43:52;95074.97;;;25.87;73.68
9538;BME280;4807;48.024;11.726;2022-08-21T07:47:01;95069.22;;;26.01;70.93
9538;BME280;4807;48.024;11.726;2022-08-21T07:50:11;95073.25;;;26.29;70.48
9538;BME280;4807;48.024;11.726;2022-08-21T07:53:20;95076.00;;;25.57;74.12
9538;BME280;4807;48.024;11.726;2022-08-21T07:56:30;95071.47;;;24.94;75.01
9538;BME280;4807;48.024;11.726;2022-08-21T07:59:40;95066.50;;;25.85;70.80
9538;BME280;4807;48.024;11.726;2022-08-21T08:02:51;95066.31;;;25.75;71.87
9538;BME280;4807;48.024;11.726;2022-08-21T08:06:00;95057.91;;;26.18;70.83
9538;BME280;4807;48.024;11.726;2022-08-21T08:09:12;95065.72;;;25.48;71.81
9538;BME280;4807;48.024;11.726;2022-08-21T08:12:20;95061.56;;;24.38;74.13
9538;BME280;4807;48.024;11.726;2022-08-21T08:15:30;95052.13;;;23.72;79.05
9538;BME280;4807;48.024;11.726;2022-08-21T08:18:44;95064.34;;;24.57;78.37
9538;BME280;4807;48.024;11.726;2022-08-21T08:21:52;95054.44;;;25.30;73.36
9538;BME280;4807;48.024;11.726;2022-08-21T08:25:01;95044.72;;;25.85;71.18
9538;BME280;4807;48.024;11.726;2022-08-21T08:28:15;95046.94;;;25.18;74.77
9538;BME280;4807;48.024;11.726;2022-08-21T08:31:25;95040.31;;;23.59;77.53
9538;BME280;4807;48.024;11.726;2022-08-21T08:34:35;95044.59;;;23.57;85.04
9538;BME280;4807;48.024;11.726;2022-08-21T08:37:44;95054.59;;;24.60;78.77
9538;BME280;4807;48.024;11.726;2022-08-21T08:41:12;95040.19;;;24.83;75.23
9538;BME280;4807;48.024;11.726;2022-08-21T08:44:24;95038.81;;;24.32;76.84
9538;BME280;4807;48.024;11.726;2022-08-21T08:47:42;95039.78;;;24.64;76.55
9538;BME280;4807;48.024;11.726;2022-08-21T08:50:55;95041.16;;;24.96;74.15
9538;BME280;4807;48.024;11.726;2022-08-21T08:54:11;95044.06;;;24.42;79.91
9538;BME280;4807;48.024;11.726;2022-08-21T08:57:23;95042.34;;;24.95;76.21
9538;BME280;4807;48.024;11.726;2022-08-21T09:00:31;95041.84;;;25.00;73.07
9538;BME280;4807;48.024;11.726;2022-08-21T09:03:42;95038.63;;;23.92;77.13
9538;BME280;4807;48.024;11.726;2022-08-21T09:07:03;95041.91;;;22.92;79.35
9538;BME280;4807;48.024;11.726;2022-08-21T09:10:18;95037.72;;;23.52;81.10
9538;BME280;4807;48.024;11.726;2022-08-21T09:13:46;95036.91;;;22.50;80.51
9538;BME280;4807;48.024;11.726;2022-08-21T09:17:10;95045.97;;;21.81;83.08
9538;BME280;4807;48.024;11.726;2022-08-21T09:20:37;95040.81;;;22.04;83.61
9538;BME280;4807;48.024;11.726;2022-08-21T09:23:55;95039.19;;;22.14;80.63
9538;BME280;4807;48.024;11.726;2022-08-21T09:27:11;95042.38;;;22.46;80.84
9538;BME280;4807;48.024;11.726;2022-08-21T09:33:36;95028.56;;;22.71;74.84
9538;BME280;4807;48.024;11.726;2022-08-21T09:36:49;95035.09;;;21.88;79.57
9538;BME280;4807;48.024;11.726;2022-08-21T09:39:58;95034.00;;;21.82;81.79
9538;BME280;4807;48.024;11.726;2022-08-21T09:43:17;95023.69;;;21.66;77.80
9538;BME280;4807;48.024;11.726;2022-08-21T09:46:27;95030.69;;;21.60;76.53
9538;BME280;4807;48.024;11.726;2022-08-21T09:49:39;95032.31;;;21.47;74.65
9538;BME280;4807;48.024;11.726;2022-08-21T09:52:53;95028.09;;;22.01;74.94
9538;BME280;4807;48.024;11.726;2022-08-21T09:56:17;95031.19;;;21.96;73.20
9538;BME280;4807;48.024;11.726;2022-08-21T09:59:46;95019.16;;;22.49;71.53
9538;BME280;4807;48.024;11.726;2022-08-21T10:03:09;95022.38;;;22.77;68.96
9538;BME280;4807;48.024;11.726;2022-08-21T10:06:25;95016.03;;;23.22;71.26
9538;BME280;4807;48.024;11.726;2022-08-21T10:09:37;95019.28;;;22.75;69.36
9538;BME280;4807;48.024;11.726;2022-08-21T10:12:56;95018.09;;;23.10;69.19
9538;BME280;4807;48.024;11.726;2022-08-21T10:16:28;95014.34;;;23.01;68.41
9538;BME280;4807;48.024;11.726;2022-08-21T10:19:48;95014.22;;;23.11;77.14
9538;BME280;4807;48.024;11.726;2022-08-21T10:23:20;95015.28;;;22.09;79.54
9538;BME280;4807;48.024;11.726;2022-08-21T10:26:47;95012.91;;;21.62;79.62
9538;BME280;4807;48.024;11.726;2022-08-21T10:30:05;95008.97;;;21.74;79.85
9538;BME280;4807;48.024;11.726;2022-08-21T10:33:30;95010.78;;;21.88;80.62
9538;BME280;4807;48.024;11.726;2022-08-21T10:36:55;95006.47;;;22.42;79.02
9538;BME280;4807;48.024;11.726;2022-08-21T10:40:24;94994.91;;;23.67;73.46
9538;BME280;4807;48.024;11.726;2022-08-21T10:43:49;95001.84;;;23.68;68.82
9538;BME280;4807;48.024;11.726;2022-08-21T10:47:05;95002.72;;;24.35;66.40
9538;BME280;4807;48.024;11.726;2022-08-21T10:50:28;94983.38;;;25.31;64.15
9538;BME280;4807;48.024;11.726;2022-08-21T10:53:52;94997.78;;;24.89;64.32
9538;BME280;4807;48.024;11.726;2022-08-21T10:57:10;94999.25;;;24.07;66.36
9538;BME280;4807;48.024;11.726;2022-08-21T11:00:28;95003.28;;;23.49;69.07
9538;BME280;4807;48.024;11.726;2022-08-21T11:03:43;94993.88;;;23.00;66.33
9538;BME280;4807;48.024;11.726;2022-08-21T11:07:01;94989.53;;;23.33;65.38
9538;BME280;4807;48.024;11.726;2022-08-21T11:10:28;94982.56;;;23.62;69.42
9538;BME280;4807;48.024;11.726;2022-08-21T11:13:46;94985.34;;;23.28;66.89
9538;BME280;4807;48.024;11.726;2022-08-21T11:17:07;94991.66;;;23.22;71.86
9538;BME280;4807;48.024;11.726;2022-08-21T11:20:33;94987.13;;;23.11;73.16
9538;BME280;4807;48.024;11.726;2022-08-21T11:23:50;94989.22;;;23.00;73.70
9538;BME280;4807;48.024;11.726;2022-08-21T11:27:09;94983.56;;;23.18;75.64
9538;BME280;4807;48.024;11.726;2022-08-21T11:30:27;94982.38;;;23.46;74.81
9538;BME280;4807;48.024;11.726;2022-08-21T11:33:58;94978.19;;;23.68;72.08
9538;BME280;4807;48.024;11.726;2022-08-21T11:37:19;94975.09;;;23.93;71.65
9538;BME280;4807;48.024;11.726;2022-08-21T11:40:46;94970.16;;;24.11;70.17
9538;BME280;4807;48.024;11.726;2022-08-21T11:44:10;94970.16;;;24.11;69.64
9538;BME280;4807;48.024;11.726;2022-08-21T11:47:43;94970.06;;;23.14;70.61
9538;BME280;4807;48.024;11.726;2022-08-21T11:51:09;94974.47;;;22.33;71.65
9538;BME280;4807;48.024;11.726;2022-08-21T11:54:29;94972.03;;;23.10;71.99
9538;BME280;4807;48.024;11.726;2022-08-21T11:57:49;94969.09;;;23.28;69.80
9538;BME280;4807;48.024;11.726;2022-08-21T12:01:04;94968.72;;;23.57;71.45
9538;BME280;4807;48.024;11.726;2022-08-21T12:04:25;94971.41;;;24.50;72.92
9538;BME280;4807;48.024;11.726;2022-08-21T12:07:39;94959.78;;;24.49;64.10
9538;BME280;4807;48.024;11.726;2022-08-21T12:11:04;94959.78;;;24.69;60.96
9538;BME280;4807;48.024;11.726;2022-08-21T12:14:17;94959.84;;;24.26;56.53
9538;BME280;4807;48.024;11.726;2022-08-21T12:17:37;94957.13;;;24.03;64.94
9538;BME280;4807;48.024;11.726;2022-08-21T12:21:02;94950.53;;;24.04;70.77
9538;BME280;4807;48.024;11.726;2022-08-21T12:24:32;94949.75;;;23.80;67.98
9538;BME280;4807;48.024;11.726;2022-08-21T12:27:47;94956.72;;;23.54;62.81
9538;BME280;4807;48.024;11.726;2022-08-21T12:30:57;94960.19;;;23.01;68.13
9538;BME280;4807;48.024;11.726;2022-08-21T12:34:10;94946.88;;;22.83;71.49
9538;BME280;4807;48.024;11.726;2022-08-21T12:37:28;94946.13;;;22.83;72.49
9538;BME280;4807;48.024;11.726;2022-08-21T12:40:42;94942.53;;;22.89;69.59
9538;BME280;4807;48.024;11.726;2022-08-21T12:43:57;94942.53;;;23.20;65.56
9538;BME280;4807;48.024;11.726;2022-08-21T12:47:16;94938.97;;;23.53;64.28
9538;BME280;4807;48.024;11.726;2022-08-21T12:50:36;94927.84;;;24.14;66.15
9538;BME280;4807;48.024;11.726;2022-08-21T12:53:49;94926.84;;;24.67;64.14
9538;BME280;4807;48.024;11.726;2022-08-21T12:57:03;94915.09;;;24.93;63.22
9538;BME280;4807;48.024;11.726;2022-08-21T13:00:21;94917.66;;;25.00;59.26
9538;BME280;4807;48.024;11.726;2022-08-21T13:03:31;94914.66;;;25.31;59.70
9538;BME280;4807;48.024;11.726;2022-08-21T13:06:48;94910.84;;;24.73;57.99
9538;BME280;4807;48.024;11.726;2022-08-21T13:10:04;94913.56;;;24.33;59.98
9538;BME280;4807;48.024;11.726;2022-08-21T13:13:21;94914.03;;;23.85;58.10
9538;BME280;4807;48.024;11.726;2022-08-21T13:16:34;94906.53;;;23.92;58.93
9538;BME280;4807;48.024;11.726;2022-08-21T13:19:52;94914.84;;;23.32;68.33
9538;BME280;4807;48.024;11.726;2022-08-21T13:23:02;94909.75;;;23.10;72.11
9538;BME280;4807;48.024;11.726;2022-08-21T13:26:17;94908.84;;;23.21;72.03
9538;BME280;4807;48.024;11.726;2022-08-21T13:29:32;94910.59;;;23.31;71.86
9538;BME280;4807;48.024;11.726;2022-08-21T13:32:56;94903.25;;;23.31;71.41
9538;BME280;4807;48.024;11.726;2022-08-21T13:36:13;94898.53;;;23.85;70.93
9538;BME280;4807;48.024;11.726;2022-08-21T13:39:25;94892.50;;;24.41;68.13
9538;BME280;4807;48.024;11.726;2022-08-21T13:42:33;94888.94;;;24.63;66.98
9538;BME280;4807;48.024;11.726;2022-08-21T13:49:17;94889.56;;;24.51;67.90
9538;BME280;4807;48.024;11.726;2022-08-21T13:52:27;94888.38;;;24.52;66.52
9538;BME280;4807;48.024;11.726;2022-08-21T13:55:40;94887.97;;;24.34;64.32
9538;BME280;4807;48.024;11.726;2022-08-21T13:58:50;94895.16;;;23.78;63.90
9538;BME280;4807;48.024;11.726;2022-08-21T14:02:07;94893.72;;;23.50;60.41
9538;BME280;4807;48.024;11.726;2022-08-21T14:05:24;94888.84;;;23.38;64.18
9538;BME280;4807;48.024;11.726;2022-08-21T14:08:37;94889.59;;;23.38;64.62
9538;BME280;4807;48.024;11.726;2022-08-21T14:11:48;94885.63;;;23.70;62.95
9538;BME280;4807;48.024;11.726;2022-08-21T14:15:04;94875.94;;;23.92;61.96
9538;BME280;4807;48.024;11.726;2022-08-21T14:18:17;94871.56;;;24.41;61.31
9538;BME280;4807;48.024;11.726;2022-08-21T14:21:35;94876.13;;;24.64;60.30
9538;BME280;4807;48.024;11.726;2022-08-21T14:24:45;94880.31;;;24.49;60.60
9538;BME280;4807;48.024;11.726;2022-08-21T14:28:13;94863.94;;;24.72;63.27
9538;BME280;4807;48.024;11.726;2022-08-21T14:31:31;94865.84;;;24.91;61.86
9538;BME280;4807;48.024;11.726;2022-08-21T14:34:48;94863.31;;;24.64;63.21
9538;BME280;4807;48.024;11.726;2022-08-21T14:37:58;94866.03;;;24.64;62.63
9538;BME280;4807;48.024;11.726;2022-08-21T14:41:15;94857.72;;;24.91;62.43
9538;BME280;4807;48.024;11.726;2022-08-21T14:44:24;94853.59;;;25.03;61.28
9538;BME280;4807;48.024;11.726;2022-08-21T14:47:33;94857.66;;;24.95;61.71
9538;BME280;4807;48.024;11.726;2022-08-21T14:50:42;94854.59;;;25.09;58.23
9538;BME280;4807;48.024;11.726;2022-08-21T14:53:52;94856.72;;;25.01;59.93
9538;BME280;4807;48.024;11.726;2022-08-21T14:57:08;94868.84;;;25.13;62.09
9538;BME280;4807;48.024;11.726;2022-08-21T15:00:23;94862.88;;;24.66;60.29
9538;BME280;4807;48.024;11.726;2022-08-21T15:03:42;94864.47;;;24.27;65.64
9538;BME280;4807;48.024;11.726;2022-08-21T15:06:51;94867.22;;;24.04;66.00
9538;BME280;4807;48.024;11.726;2022-08-21T15:10:01;94862.09;;;23.86;64.58
9538;BME280;4807;48.024;11.726;2022-08-21T15:13:10;94862.28;;;23.76;65.45
9538;BME280;4807;48.024;11.726;2022-08-21T15:16:20;94861.22;;;23.70;66.46
9538;BME280;4807;48.024;11.726;2022-08-21T15:19:29;94857.25;;;23.98;65.17
9538;BME280;4807;48.024;11.726;2022-08-21T15:22:37;94857.47;;;24.46;62.22
9538;BME280;4807;48.024;11.726;2022-08-21T15:25:55;94846.38;;;24.77;59.76
9538;BME280;4807;48.024;11.726;2022-08-21T15:29:07;94852.41;;;24.48;57.71
9538;BME280;4807;48.024;11.726;2022-08-21T15:32:20;94848.25;;;24.24;58.45
9538;BME280;4807;48.024;11.726;2022-08-21T15:35:29;94848.72;;;24.19;61.94
9538;BME280;4807;48.024;11.726;2022-08-21T15:38:38;94863.50;;;23.95;63.50
9538;BME280;4807;48.024;11.726;2022-08-21T15:41:48;94856.66;;;23.67;64.02
9538;BME280;4807;48.024;11.726;2022-08-21T15:44:57;94857.81;;;23.66;63.91
9538;BME280;4807;48.024;11.726;2022-08-21T15:48:06;94859.16;;;23.77;62.34
9538;BME280;4807;48.024;11.726;2022-08-21T15:51:17;94845.19;;;23.99;60.96
9538;BME280;4807;48.024;11.726;2022-08-21T15:54:25;94848.09;;;23.68;59.65
9538;BME280;4807;48.024;11.726;2022-08-21T15:57:37;94855.88;;;23.66;61.41
9538;BME280;4807;48.024;11.726;2022-08-21T16:00:46;94845.03;;;23.43;61.69
9538;BME280;4807;48.024;11.726;2022-08-21T16:03:55;94854.38;;;23.15;62.03
9538;BME280;4807;48.024;11.726;2022-08-21T16:07:03;94846.63;;;22.90;66.05
9538;BME280;4807;48.024;11.726;2022-08-21T16:10:19;94844.28;;;22.92;62.48
9538;BME280;4807;48.024;11.726;2022-08-21T16:13:36;94843.84;;;22.94;63.38
9538;BME280;4807;48.024;11.726;2022-08-21T16:16:46;94842.22;;;23.00;66.22
9538;BME280;4807;48.024;11.726;2022-08-21T16:19:55;94842.28;;;22.96;62.36
9538;BME280;4807;48.024;11.726;2022-08-21T16:23:04;94841.59;;;22.89;63.10
9538;BME280;4807;48.024;11.726;2022-08-21T16:26:14;94840.44;;;22.90;64.81
9538;BME280;4807;48.024;11.726;2022-08-21T16:29:30;94828.94;;;22.82;64.61
9538;BME280;4807;48.024;11.726;2022-08-21T16:32:42;94836.13;;;23.19;61.15
9538;BME280;4807;48.024;11.726;2022-08-21T16:35:52;94840.94;;;23.08;60.20
9538;BME280;4807;48.024;11.726;2022-08-21T16:39:00;94840.47;;;23.13;60.39
9538;BME280;4807;48.024;11.726;2022-08-21T16:42:13;94832.72;;;23.15;62.08
9538;BME280;4807;48.024;11.726;2022-08-21T16:45:29;94821.03;;;23.18;63.25
9538;BME280;4807;48.024;11.726;2022-08-21T16:48:41;94829.41;;;23.27;60.79
9538;BME280;4807;48.024;11.726;2022-08-21T16:51:51;94827.59;;;23.21;59.08
9538;BME280;4807;48.024;11.726;2022-08-21T16:54:59;94819.22;;;23.11;61.94
9538;BME280;4807;48.024;11.726;2022-08-21T17:01:38;94816.66;;;23.01;62.14
9538;BME280;4807;48.024;11.726;2022-08-21T17:04:47;94824.78;;;23.01;62.45
9538;BME280;4807;48.024;11.726;2022-08-21T17:07:55;94823.38;;;22.93;61.76
9538;BME280;4807;48.024;11.726;2022-08-21T17:11:07;94820.81;;;22.82;59.14
9538;BME280;4807;48.024;11.726;2022-08-21T17:14:19;94826.78;;;22.70;59.59
9538;BME280;4807;48.024;11.726;2022-08-21T17:17:30;94827.94;;;22.69;63.31
9538;BME280;4807;48.024;11.726;2022-08-21T17:20:38;94834.34;;;22.55;64.61
9538;BME280;4807;48.024;11.726;2022-08-21T17:23:47;94825.56;;;22.44;63.10